createdAt,value
2019-03-22T00:00:29.073Z,98840.92
2019-03-22T00:03:38.093Z,98840.87
2019-03-22T00:06:45.903Z,98843.47
2019-03-22T00:09:53.551Z,98840.92
2019-03-22T00:13:01.317Z,98840.42
2019-03-22T00:16:08.959Z,98843.36
2019-03-22T00:19:16.759Z,98839.58
2019-03-22T00:22:24.415Z,98842.03
2019-03-22T00:25:36.117Z,98841.92
2019-03-22T00:28:46.125Z,98843.73
2019-03-22T00:31:53.804Z,98840.49
2019-03-22T00:35:01.369Z,98832.19
2019-03-22T00:38:09.120Z,98831.05
2019-03-22T00:41:16.672Z,98825.41
2019-03-22T00:44:24.363Z,98817.51
2019-03-22T00:47:32.057Z,98822.14
2019-03-22T00:50:39.954Z,98814.81
2019-03-22T00:53:47.587Z,98817.33
2019-03-22T00:56:57.959Z,98815.23
2019-03-22T01:00:06.925Z,98819.41
2019-03-22T01:03:14.781Z,98823.88
2019-03-22T01:06:24.052Z,98817.93
2019-03-22T01:09:31.803Z,98811.55
2019-03-22T01:12:39.580Z,98815.70
2019-03-22T01:15:47.302Z,98810.91
2019-03-22T01:18:55.098Z,98818.55
2019-03-22T01:22:02.911Z,98814.06
2019-03-22T01:25:12.621Z,98801.52
2019-03-22T01:28:24.347Z,98809.19
2019-03-22T01:31:33.763Z,98802.13
2019-03-22T01:34:41.598Z,98804.72
2019-03-22T01:37:49.368Z,98796.39
2019-03-22T01:40:57.194Z,98804.97
2019-03-22T01:44:05.376Z,98797.61
2019-03-22T01:47:13.068Z,98792.99
2019-03-22T01:50:21.014Z,98787.42
2019-03-22T01:53:29.639Z,98793.27
2019-03-22T01:56:37.276Z,98792.05
2019-03-22T01:59:45.047Z,98781.02
2019-03-22T02:02:52.689Z,98775.06
2019-03-22T02:06:03.613Z,98776.88
2019-03-22T02:09:11.335Z,98779.11
2019-03-22T02:12:19.233Z,98773.78
2019-03-22T02:15:26.802Z,98780.08
2019-03-22T02:18:34.732Z,98777.03
2019-03-22T02:21:44.482Z,98775.81
2019-03-22T02:24:52.363Z,98778.56
2019-03-22T02:28:04.327Z,98776.00
2019-03-22T02:31:09.875Z,98782.34
2019-03-22T02:34:17.797Z,98776.11
2019-03-22T02:37:25.587Z,98773.84
2019-03-22T02:40:33.343Z,98775.69
2019-03-22T02:43:41.037Z,98773.42
2019-03-22T02:46:48.697Z,98766.98
2019-03-22T02:49:56.526Z,98769.11
2019-03-22T02:53:04.119Z,98774.34
2019-03-22T02:56:12.838Z,98780.70
2019-03-22T02:59:20.708Z,98786.50
2019-03-22T03:02:28.713Z,98783.84
2019-03-22T03:05:36.589Z,98787.69
2019-03-22T03:08:44.370Z,98788.87
2019-03-22T03:11:52.374Z,98787.51
2019-03-22T03:15:00.417Z,98784.89
2019-03-22T03:18:08.233Z,98790.22
2019-03-22T03:21:15.953Z,98786.67
2019-03-22T03:24:23.622Z,98785.86
2019-03-22T03:27:31.320Z,98784.28
2019-03-22T03:30:39.014Z,98784.73
2019-03-22T03:33:50.151Z,98780.34
2019-03-22T03:36:57.892Z,98786.32
2019-03-22T03:40:07.082Z,98771.47
2019-03-22T03:43:14.806Z,98764.59
2019-03-22T03:46:22.522Z,98767.35
2019-03-22T03:49:30.342Z,98768.92
2019-03-22T03:52:41.110Z,98765.05
2019-03-22T03:55:55.003Z,98767.77
2019-03-22T03:59:02.982Z,98774.27
2019-03-22T04:02:10.678Z,98766.58
2019-03-22T04:05:18.365Z,98765.31
2019-03-22T04:08:26.005Z,98766.58
2019-03-22T04:11:33.706Z,98773.36
2019-03-22T04:14:41.439Z,98773.37
2019-03-22T04:17:51.932Z,98772.19
2019-03-22T04:21:00.174Z,98774.23
2019-03-22T04:24:07.867Z,98780.13
2019-03-22T04:27:15.547Z,98766.52
2019-03-22T04:30:23.209Z,98766.58
2019-03-22T04:33:30.853Z,98772.02
2019-03-22T04:36:41.471Z,98769.88
2019-03-22T04:39:50.966Z,98771.16
2019-03-22T04:42:58.935Z,98772.70
2019-03-22T04:46:08.458Z,98779.81
2019-03-22T04:49:18.620Z,98783.11
2019-03-22T04:52:27.555Z,98792.83
2019-03-22T04:55:36.298Z,98778.83
2019-03-22T04:58:46.993Z,98789.90
2019-03-22T05:01:58.648Z,98794.02
2019-03-22T05:05:07.623Z,98787.72
2019-03-22T05:08:16.516Z,98794.80
2019-03-22T05:11:25.883Z,98800.38
2019-03-22T05:14:36.286Z,98800.80
2019-03-22T05:17:44.260Z,98802.11
2019-03-22T05:20:55.610Z,98798.75
2019-03-22T05:24:05.336Z,98797.09
2019-03-22T05:27:21.650Z,98797.05
2019-03-22T05:31:17.196Z,98799.58
2019-03-22T05:34:26.018Z,98803.45
2019-03-22T05:37:33.647Z,98801.78
2019-03-22T05:40:41.436Z,98807.81
2019-03-22T05:43:50.538Z,98804.28
2019-03-22T05:46:58.262Z,98809.81
2019-03-22T05:50:06.284Z,98808.12
2019-03-22T05:53:13.993Z,98809.50
2019-03-22T05:56:21.626Z,98815.88
2019-03-22T05:59:29.344Z,98811.30
2019-03-22T06:02:37.398Z,98811.83
2019-03-22T06:05:47.472Z,98816.17
2019-03-22T06:08:55.132Z,98820.00
2019-03-22T06:12:02.784Z,98813.28
2019-03-22T06:15:10.558Z,98810.38
2019-03-22T06:18:19.314Z,98818.05
2019-03-22T06:21:26.898Z,98821.52
2019-03-22T06:24:34.580Z,98819.48
2019-03-22T06:27:44.088Z,98817.03
2019-03-22T06:30:51.781Z,98822.57
2019-03-22T06:33:59.638Z,98817.13
2019-03-22T06:37:07.536Z,98818.08
2019-03-22T06:40:15.244Z,98819.81
2019-03-22T06:43:23.065Z,98820.75
2019-03-22T06:46:30.771Z,98821.27
2019-03-22T06:49:38.557Z,98828.13
2019-03-22T06:52:46.173Z,98829.06
2019-03-22T06:55:53.859Z,98828.30
2019-03-22T06:59:01.495Z,98829.63
2019-03-22T07:02:09.232Z,98828.81
2019-03-22T07:05:17.115Z,98832.69
2019-03-22T07:08:25.012Z,98833.55
2019-03-22T07:11:32.589Z,98831.92
2019-03-22T07:14:40.358Z,98833.20
2019-03-22T07:17:49.287Z,98831.91
2019-03-22T07:20:56.974Z,98833.64
2019-03-22T07:24:04.669Z,98831.51
2019-03-22T07:27:12.374Z,98823.45
2019-03-22T07:30:21.210Z,98825.95
2019-03-22T07:33:28.907Z,98826.80
2019-03-22T07:36:36.536Z,98825.50
2019-03-22T07:39:47.515Z,98826.28
2019-03-22T07:42:56.521Z,98821.66
2019-03-22T07:46:04.253Z,98818.61
2019-03-22T07:49:11.915Z,98822.42
2019-03-22T07:52:19.719Z,98824.86
2019-03-22T07:55:27.404Z,98825.25
2019-03-22T07:58:35.084Z,98817.16
2019-03-22T08:01:43.926Z,98806.77
2019-03-22T08:04:53.249Z,98809.21
2019-03-22T08:08:01.210Z,98804.84
2019-03-22T08:11:09.832Z,98812.84
2019-03-22T08:14:17.619Z,98808.00
2019-03-22T08:17:25.455Z,98812.90
2019-03-22T08:20:33.196Z,98810.03
2019-03-22T08:23:42.377Z,98810.28
2019-03-22T08:26:50.077Z,98808.14
2019-03-22T08:29:57.855Z,98799.52
2019-03-22T08:33:05.608Z,98802.36
2019-03-22T08:36:14.969Z,98804.48
2019-03-22T08:39:22.824Z,98797.91
2019-03-22T08:42:30.519Z,98797.80
2019-03-22T08:45:38.282Z,98793.34
2019-03-22T08:48:46.124Z,98793.95
2019-03-22T08:51:53.897Z,98797.45
2019-03-22T08:55:01.815Z,98801.38
2019-03-22T08:58:09.852Z,98798.89
2019-03-22T09:01:18.201Z,98799.34
2019-03-22T09:04:26.094Z,98798.14
2019-03-22T09:07:33.956Z,98805.80
2019-03-22T09:10:56.856Z,98801.45
2019-03-22T09:14:05.765Z,98796.62
2019-03-22T09:17:13.599Z,98802.36
2019-03-22T09:20:21.708Z,98799.08
2019-03-22T09:23:30.156Z,98792.33
2019-03-22T09:26:47.173Z,98794.69
2019-03-22T09:29:48.070Z,98786.16
2019-03-22T09:32:55.908Z,98788.47
2019-03-22T09:36:03.551Z,98784.14
2019-03-22T09:39:13.758Z,98781.78
2019-03-22T09:42:21.470Z,98778.47
2019-03-22T09:45:29.221Z,98774.42
2019-03-22T09:48:36.970Z,98772.99
2019-03-22T09:51:46.387Z,98764.94
2019-03-22T09:54:54.135Z,98769.60
2019-03-22T09:58:02.035Z,98769.81
2019-03-22T10:01:22.888Z,98766.22
2019-03-22T10:04:19.317Z,98763.77
2019-03-22T10:07:27.294Z,98759.47
2019-03-22T10:10:35.080Z,98755.59
2019-03-22T10:13:48.432Z,98767.26
2019-03-22T10:16:56.474Z,98756.15
2019-03-22T10:20:04.953Z,98761.16
2019-03-22T10:23:12.706Z,98751.05
2019-03-22T10:26:20.559Z,98743.08
2019-03-22T10:29:28.310Z,98744.84
2019-03-22T10:32:36.051Z,98743.94
2019-03-22T10:35:43.916Z,98739.30
2019-03-22T10:38:53.330Z,98743.44
2019-03-22T10:42:01.146Z,98729.94
2019-03-22T10:45:09.286Z,98734.28
2019-03-22T10:48:17.029Z,98728.37
2019-03-22T10:51:24.812Z,98724.49
2019-03-22T10:54:32.554Z,98725.70
2019-03-22T10:57:40.640Z,98721.96
2019-03-22T11:00:48.653Z,98721.81
2019-03-22T11:03:56.477Z,98708.93
2019-03-22T11:07:04.452Z,98709.22
2019-03-22T11:10:16.450Z,98704.27
2019-03-22T11:13:24.256Z,98700.73
2019-03-22T11:16:33.165Z,98687.73
2019-03-22T11:19:42.482Z,98703.74
2019-03-22T11:22:50.153Z,98695.63
2019-03-22T11:26:04.169Z,98691.88
2019-03-22T11:29:07.327Z,98681.03
2019-03-22T11:32:15.478Z,98688.93
2019-03-22T11:35:23.256Z,98688.75
2019-03-22T11:38:31.502Z,98685.70
2019-03-22T11:41:39.172Z,98680.88
2019-03-22T11:44:49.685Z,98674.33
2019-03-22T11:47:57.403Z,98666.41
2019-03-22T11:51:05.627Z,98663.88
2019-03-22T11:54:13.431Z,98664.64
2019-03-22T11:57:21.154Z,98661.19
2019-03-22T12:00:30.271Z,98654.44
2019-03-22T12:03:37.896Z,98643.30
2019-03-22T12:06:45.636Z,98651.98
2019-03-22T12:09:53.477Z,98654.42
2019-03-22T12:13:02.139Z,98645.88
2019-03-22T12:16:09.839Z,98648.55
2019-03-22T12:19:19.462Z,98637.27
2019-03-22T12:22:27.969Z,98640.30
2019-03-22T12:25:45.571Z,98631.16
2019-03-22T12:28:53.640Z,98626.55
2019-03-22T12:32:01.295Z,98625.80
2019-03-22T12:35:10.661Z,98620.63
2019-03-22T12:38:18.357Z,98612.14
2019-03-22T12:41:26.103Z,98611.13
2019-03-22T12:44:33.818Z,98607.25
2019-03-22T12:47:41.538Z,98608.97
2019-03-22T12:50:49.134Z,98601.97
2019-03-22T12:53:57.010Z,98596.64
2019-03-22T12:57:04.781Z,98596.01
2019-03-22T13:00:16.974Z,98586.26
2019-03-22T13:03:24.848Z,98585.56
2019-03-22T13:06:33.105Z,98582.45
2019-03-22T13:09:40.809Z,98575.70
2019-03-22T13:12:48.528Z,98572.66
2019-03-22T13:15:56.291Z,98561.53
2019-03-22T13:19:06.405Z,98565.02
2019-03-22T13:22:15.566Z,98560.70
2019-03-22T13:25:23.287Z,98559.16
2019-03-22T13:28:32.643Z,98555.81
2019-03-22T13:31:40.466Z,98551.14
2019-03-22T13:34:48.155Z,98544.06
2019-03-22T13:37:56.016Z,98535.62
2019-03-22T13:41:03.973Z,98538.22
2019-03-22T13:44:12.150Z,98531.58
2019-03-22T13:47:20.769Z,98524.89
2019-03-22T13:50:31.775Z,98526.19
2019-03-22T13:53:39.601Z,98528.42
2019-03-22T13:56:48.112Z,98522.25
2019-03-22T13:59:56.582Z,98517.02
2019-03-22T14:03:04.721Z,98504.13
2019-03-22T14:06:12.755Z,98501.00
2019-03-22T14:09:23.985Z,98494.99
2019-03-22T14:12:36.960Z,98495.39
2019-03-22T14:15:41.450Z,98492.91
2019-03-22T14:18:49.459Z,98493.98
2019-03-22T14:21:57.332Z,98495.16
2019-03-22T14:25:05.711Z,98493.73
2019-03-22T14:28:13.409Z,98490.67
2019-03-22T14:31:21.044Z,98483.89
2019-03-22T14:34:30.195Z,98480.36
2019-03-22T14:37:39.583Z,98475.95
2019-03-22T14:40:46.950Z,98475.63
2019-03-22T14:43:54.372Z,98467.48
2019-03-22T14:47:05.345Z,98468.05
2019-03-22T14:50:13.037Z,98463.65
2019-03-22T14:53:22.511Z,98460.78
2019-03-22T14:56:30.151Z,98453.08
2019-03-22T14:59:37.517Z,98448.52
2019-03-22T15:02:47.026Z,98448.70
2019-03-22T15:05:56.346Z,98445.53
2019-03-22T15:09:05.322Z,98438.41
2019-03-22T15:12:12.831Z,98435.92
2019-03-22T15:15:39.525Z,98439.03
2019-03-22T15:19:05.816Z,98428.46
2019-03-22T15:22:33.865Z,98422.89
2019-03-22T15:26:00.790Z,98423.90
2019-03-22T15:29:27.373Z,98418.63
2019-03-22T15:33:05.802Z,98426.00
2019-03-22T15:36:30.981Z,98425.79
2019-03-22T15:40:06.852Z,98420.05
2019-03-22T15:43:15.608Z,98417.86
2019-03-22T15:46:34.799Z,98417.03
2019-03-22T15:49:42.524Z,98417.66
2019-03-22T15:52:54.465Z,98419.13
2019-03-22T15:56:02.440Z,98409.23
2019-03-22T15:59:11.465Z,98413.47
2019-03-22T16:02:22.043Z,98410.67
2019-03-22T16:05:32.928Z,98408.29
2019-03-22T16:08:40.805Z,98407.06
2019-03-22T16:11:48.645Z,98398.84
2019-03-22T16:14:58.016Z,98407.23
2019-03-22T16:18:06.158Z,98400.98
2019-03-22T16:21:14.737Z,98400.84
2019-03-22T16:24:22.865Z,98399.70
2019-03-22T16:27:31.594Z,98405.66
2019-03-22T16:30:41.121Z,98399.50
2019-03-22T16:33:59.050Z,98405.95
2019-03-22T16:37:09.515Z,98405.55
2019-03-22T16:40:24.189Z,98408.77
2019-03-22T16:43:27.028Z,98407.84
2019-03-22T16:46:36.155Z,98403.80
2019-03-22T16:49:43.878Z,98408.63
2019-03-22T16:52:51.950Z,98416.50
2019-03-22T16:55:59.710Z,98408.78
2019-03-22T16:59:07.385Z,98416.11
2019-03-22T17:02:17.149Z,98411.45
2019-03-22T17:05:25.592Z,98418.66
2019-03-22T17:08:35.002Z,98416.80
2019-03-22T17:11:47.848Z,98419.77
2019-03-22T17:15:01.571Z,98424.13
2019-03-22T17:18:11.197Z,98418.05
2019-03-22T17:21:23.851Z,98411.59
2019-03-22T17:24:31.918Z,98408.87
2019-03-22T17:27:42.870Z,98413.23
2019-03-22T17:30:50.968Z,98417.91
2019-03-22T17:34:00.199Z,98413.80
2019-03-22T17:37:08.194Z,98408.77
2019-03-22T17:40:16.181Z,98410.30
2019-03-22T17:43:26.710Z,98409.00
2019-03-22T17:46:36.491Z,98411.81
2019-03-22T17:49:48.489Z,98412.73
2019-03-22T17:52:56.514Z,98420.84
2019-03-22T17:56:04.198Z,98416.86
2019-03-22T17:59:12.170Z,98422.02
2019-03-22T18:02:20.049Z,98418.48
2019-03-22T18:05:28.454Z,98426.56
2019-03-22T18:08:37.348Z,98426.86
2019-03-22T18:11:45.506Z,98428.08
2019-03-22T18:14:53.331Z,98439.39
2019-03-22T18:18:01.097Z,98437.59
2019-03-22T18:21:08.927Z,98437.72
2019-03-22T18:24:16.803Z,98442.08
2019-03-22T18:27:24.558Z,98445.00
2019-03-22T18:30:33.480Z,98451.55
2019-03-22T18:33:41.279Z,98448.57
2019-03-22T18:36:49.196Z,98449.39
2019-03-22T18:39:56.927Z,98450.59
2019-03-22T18:43:04.962Z,98457.85
2019-03-22T18:46:15.555Z,98447.00
2019-03-22T18:49:25.019Z,98451.32
2019-03-22T18:52:34.065Z,98451.05
2019-03-22T18:55:42.175Z,98451.70
2019-03-22T18:58:49.936Z,98453.95
2019-03-22T19:01:57.810Z,98451.78
2019-03-22T19:05:07.891Z,98459.38
2019-03-22T19:08:16.186Z,98453.56
2019-03-22T19:11:25.820Z,98452.58
2019-03-22T19:14:33.704Z,98448.03
2019-03-22T19:17:42.595Z,98451.92
2019-03-22T19:20:50.576Z,98450.39
2019-03-22T19:23:58.385Z,98450.28
2019-03-22T19:27:06.153Z,98447.23
2019-03-22T19:30:16.483Z,98449.81
2019-03-22T19:33:24.944Z,98445.92
2019-03-22T19:36:32.936Z,98445.68
2019-03-22T19:39:43.878Z,98442.72
2019-03-22T19:42:51.624Z,98441.45
2019-03-22T19:45:59.371Z,98444.61
2019-03-22T19:49:07.118Z,98443.47
2019-03-22T19:52:16.176Z,98443.38
2019-03-22T19:55:24.064Z,98440.67
2019-03-22T19:58:31.833Z,98442.76
2019-03-22T20:01:39.729Z,98439.71
2019-03-22T20:04:47.670Z,98442.12
2019-03-22T20:07:55.350Z,98437.83
2019-03-22T20:11:03.113Z,98439.17
2019-03-22T20:14:10.804Z,98434.72
2019-03-22T20:17:18.820Z,98437.91
2019-03-22T20:20:26.905Z,98439.41
2019-03-22T20:23:34.619Z,98441.23
2019-03-22T20:26:42.413Z,98439.20
2019-03-22T20:29:50.339Z,98437.39
2019-03-22T20:32:58.111Z,98434.33
2019-03-22T20:39:09.325Z,98430.70
2019-03-22T20:42:17.477Z,98425.32
2019-03-22T20:45:25.404Z,98427.63
2019-03-22T20:48:33.107Z,98425.75
2019-03-22T20:51:42.256Z,98424.70
2019-03-22T20:54:49.919Z,98422.08
2019-03-22T20:57:57.745Z,98417.64
2019-03-22T21:01:05.854Z,98417.30
2019-03-22T21:04:13.553Z,98415.02
2019-03-22T21:07:21.284Z,98413.89
2019-03-22T21:10:30.022Z,98414.02
2019-03-22T21:13:37.886Z,98419.41
2019-03-22T21:16:45.593Z,98418.72
2019-03-22T21:19:58.507Z,98420.69
2019-03-22T21:23:07.234Z,98414.80
2019-03-22T21:26:15.034Z,98414.25
2019-03-22T21:29:22.862Z,98417.48
2019-03-22T21:32:30.449Z,98409.17
2019-03-22T21:35:38.470Z,98409.02
2019-03-22T21:38:46.133Z,98413.94
2019-03-22T21:41:54.942Z,98413.20
2019-03-22T21:45:02.614Z,98416.84
2019-03-22T21:48:10.368Z,98414.66
2019-03-22T21:51:18.070Z,98411.06
2019-03-22T21:54:26.259Z,98404.67
2019-03-22T21:57:33.914Z,98414.38
2019-03-22T22:00:41.745Z,98415.59
2019-03-22T22:03:49.465Z,98402.46
2019-03-22T22:06:57.279Z,98405.03
2019-03-22T22:10:05.335Z,98404.06
2019-03-22T22:13:14.094Z,98402.61
2019-03-22T22:16:23.038Z,98410.17
2019-03-22T22:19:30.722Z,98398.05
2019-03-22T22:22:38.666Z,98400.09
2019-03-22T22:25:46.291Z,98398.27
2019-03-22T22:28:53.947Z,98398.94
2019-03-22T22:32:01.651Z,98396.58
2019-03-22T22:35:09.690Z,98394.80
2019-03-22T22:38:17.474Z,98400.86
2019-03-22T22:41:25.277Z,98395.64
2019-03-22T22:44:33.318Z,98395.66
2019-03-22T22:47:41.019Z,98382.79
2019-03-22T22:50:48.694Z,98388.70
2019-03-22T22:53:56.485Z,98383.38
2019-03-22T22:57:04.207Z,98373.07
2019-03-22T23:00:17.023Z,98377.78
2019-03-22T23:03:26.355Z,98372.40
2019-03-22T23:06:33.929Z,98370.90
2019-03-22T23:09:41.879Z,98364.00
2019-03-22T23:12:49.581Z,98359.37
2019-03-22T23:15:57.406Z,98367.16
2019-03-22T23:19:05.060Z,98360.38
2019-03-22T23:22:13.216Z,98369.83
2019-03-22T23:25:21.876Z,98363.06
2019-03-22T23:28:29.482Z,98364.96
2019-03-22T23:31:39.023Z,98353.33
2019-03-22T23:34:58.443Z,98358.86
2019-03-22T23:37:57.637Z,98360.11
2019-03-22T23:41:05.526Z,98349.55
2019-03-22T23:44:13.588Z,98355.16
2019-03-22T23:47:21.947Z,98345.03
2019-03-22T23:50:29.609Z,98339.91
2019-03-22T23:53:37.240Z,98342.05
2019-03-22T23:56:45.137Z,98337.02
2019-03-22T23:59:53.331Z,98339.57
